Grant, NE

7:48 PM MDT on April 30, 2017 (GMT -0600)
Perkins County - Ag Data Specialties | | Change Station

Elev 3367 ft 40.83 °N, 101.60 °W | Updated 18 minutes ago

Partly Cloudy
Partly Cloudy
46.2 °F
Feels Like 40 °F
N
15.0
Wind Variable Wind from North
Gusts 20.0 mph

Today
High -- | Low -- °F
--% Chance of Precip.
Yesterday
High -- | Low -- °F
Precip. -- in
Pressure 29.77 in
Visibility 10.0 miles
Clouds Clear
Windchill 40 °F
Dew Point 25 °F
Humidity 44%
Rainfall 0.00 in
Snow Depth Not available.
5:46 AM 7:42 PM
Waxing Crescent, 28% visible
METAR KOGA 010135Z AUTO 35014G19KT 10SM CLR 10/M05 A2977 RMK AO2 T00981052
Pressure 29.77 in
Visibility 10.0 miles
Clouds Clear
Windchill 40 °F
Dew Point 25 °F
Humidity 44%
Rainfall 0.00 in
Snow Depth Not available.
5:46 AM 7:42 PM
Waxing Crescent, 28% visible
METAR KOGA 010135Z AUTO 35014G19KT 10SM CLR 10/M05 A2977 RMK AO2 T00981052

Get Severe Weather Alerts

Thanks for signing up!

Be on the lookout for a verification email in your inbox.

You'll start receiving the daily forecast at 8 AM.

×

10-Day Weather Forecast

Almanac

Astronomy

Apr. 30, 2017 Rise Set
Actual Time
Civil Twilight
Nautical Twilight
Astronomical Twilight
Moon
Length of Visible Light
Length of Day
Tomorrow will be .
, % of the Moon is Illuminated

Today's Extremes

State Highs State Lows

Community

WunderPhotos

WunderBlog® & News

Nearby

Air Quality

  Air Quality AQ Index Pollutant
Not available.

Snow Depth

Station Depth Elevation

Earthquake Activity

City Distance Mag. Time & Date
Minimum magnitude displayed is 2.5.

Coastal Water Temperatures

Place Temperature

Stations

Nearby Weather Stations

Station Location Temp. Windchill Dew Point Humidity Wind Precip. Elev Updated Type
                   

Watches & Warnings

There are currently no watches in effect.